sensor_id;sensor_type;location;lat;lon;timestamp;temperature;humidity
25914;DHT22;13718;50.922;5.346;2023-04-25T00:01:33;9.50;99.90
25914;DHT22;13718;50.922;5.346;2023-04-25T00:04:03;9.50;99.90
25914;DHT22;13718;50.922;5.346;2023-04-25T00:06:33;9.50;99.90
25914;DHT22;13718;50.922;5.346;2023-04-25T00:09:02;9.60;99.90
25914;DHT22;13718;50.922;5.346;2023-04-25T00:11:28;9.60;99.90
25914;DHT22;13718;50.922;5.346;2023-04-25T00:13:56;9.60;99.90
25914;DHT22;13718;50.922;5.346;2023-04-25T00:16:22;9.60;99.90
25914;DHT22;13718;50.922;5.346;2023-04-25T00:18:49;9.50;99.90
25914;DHT22;13718;50.922;5.346;2023-04-25T00:21:18;9.60;99.90
25914;DHT22;13718;50.922;5.346;2023-04-25T00:23:45;9.60;99.90
25914;DHT22;13718;50.922;5.346;2023-04-25T00:26:11;9.60;99.90
25914;DHT22;13718;50.922;5.346;2023-04-25T00:28:37;9.60;99.90
25914;DHT22;13718;50.922;5.346;2023-04-25T00:31:03;9.60;99.90
25914;DHT22;13718;50.922;5.346;2023-04-25T00:33:29;9.60;99.90
25914;DHT22;13718;50.922;5.346;2023-04-25T00:35:55;9.60;99.90
25914;DHT22;13718;50.922;5.346;2023-04-25T00:38:21;9.60;99.90
25914;DHT22;13718;50.922;5.346;2023-04-25T00:40:47;9.60;99.90
25914;DHT22;13718;50.922;5.346;2023-04-25T00:43:13;9.60;99.90
25914;DHT22;13718;50.922;5.346;2023-04-25T00:45:39;9.60;99.90
25914;DHT22;13718;50.922;5.346;2023-04-25T00:48:06;9.60;99.90
25914;DHT22;13718;50.922;5.346;2023-04-25T00:50:33;9.60;99.90
25914;DHT22;13718;50.922;5.346;2023-04-25T00:53:00;9.60;99.90
25914;DHT22;13718;50.922;5.346;2023-04-25T00:55:26;9.60;99.90
25914;DHT22;13718;50.922;5.346;2023-04-25T00:57:52;9.60;99.90
25914;DHT22;13718;50.922;5.346;2023-04-25T01:00:18;9.60;99.90
25914;DHT22;13718;50.922;5.346;2023-04-25T01:02:44;9.60;99.90
25914;DHT22;13718;50.922;5.346;2023-04-25T01:05:10;9.50;99.90
25914;DHT22;13718;50.922;5.346;2023-04-25T01:07:37;9.50;99.90
25914;DHT22;13718;50.922;5.346;2023-04-25T01:10:04;9.50;99.90
25914;DHT22;13718;50.922;5.346;2023-04-25T01:12:30;9.50;99.90
25914;DHT22;13718;50.922;5.346;2023-04-25T01:14:56;9.60;99.90
25914;DHT22;13718;50.922;5.346;2023-04-25T01:17:21;9.60;99.90
25914;DHT22;13718;50.922;5.346;2023-04-25T01:19:47;9.50;99.90
25914;DHT22;13718;50.922;5.346;2023-04-25T01:22:14;9.50;99.90
25914;DHT22;13718;50.922;5.346;2023-04-25T01:24:40;9.50;99.90
25914;DHT22;13718;50.922;5.346;2023-04-25T01:27:07;9.40;99.90
25914;DHT22;13718;50.922;5.346;2023-04-25T01:29:33;9.50;99.90
25914;DHT22;13718;50.922;5.346;2023-04-25T01:32:00;9.40;99.90
25914;DHT22;13718;50.922;5.346;2023-04-25T01:34:26;9.40;99.90
25914;DHT22;13718;50.922;5.346;2023-04-25T01:36:53;9.40;99.90
25914;DHT22;13718;50.922;5.346;2023-04-25T01:39:19;9.40;99.90
25914;DHT22;13718;50.922;5.346;2023-04-25T01:41:48;9.40;99.90
25914;DHT22;13718;50.922;5.346;2023-04-25T01:44:14;9.30;99.90
25914;DHT22;13718;50.922;5.346;2023-04-25T01:46:41;9.30;99.90
25914;DHT22;13718;50.922;5.346;2023-04-25T01:49:07;9.30;99.90
25914;DHT22;13718;50.922;5.346;2023-04-25T01:51:33;9.30;99.90
25914;DHT22;13718;50.922;5.346;2023-04-25T01:53:59;9.30;99.90
25914;DHT22;13718;50.922;5.346;2023-04-25T01:56:25;9.30;99.90
25914;DHT22;13718;50.922;5.346;2023-04-25T01:58:51;9.30;99.90
25914;DHT22;13718;50.922;5.346;2023-04-25T02:01:16;9.20;99.90
25914;DHT22;13718;50.922;5.346;2023-04-25T02:03:43;9.20;99.90
25914;DHT22;13718;50.922;5.346;2023-04-25T02:06:08;9.30;99.90
25914;DHT22;13718;50.922;5.346;2023-04-25T02:08:34;9.30;99.90
25914;DHT22;13718;50.922;5.346;2023-04-25T02:11:00;9.30;99.90
25914;DHT22;13718;50.922;5.346;2023-04-25T02:13:25;9.20;99.90
25914;DHT22;13718;50.922;5.346;2023-04-25T02:15:51;9.20;99.90
25914;DHT22;13718;50.922;5.346;2023-04-25T02:18:16;9.10;99.90
25914;DHT22;13718;50.922;5.346;2023-04-25T02:20:43;9.20;99.90
25914;DHT22;13718;50.922;5.346;2023-04-25T02:23:09;9.20;99.90
25914;DHT22;13718;50.922;5.346;2023-04-25T02:25:35;9.10;99.90
25914;DHT22;13718;50.922;5.346;2023-04-25T02:28:00;9.10;99.90
25914;DHT22;13718;50.922;5.346;2023-04-25T02:30:26;9.10;99.90
25914;DHT22;13718;50.922;5.346;2023-04-25T02:32:52;9.10;99.90
25914;DHT22;13718;50.922;5.346;2023-04-25T02:35:18;9.10;99.90
25914;DHT22;13718;50.922;5.346;2023-04-25T02:37:43;9.20;99.90
25914;DHT22;13718;50.922;5.346;2023-04-25T02:40:09;9.20;99.90
25914;DHT22;13718;50.922;5.346;2023-04-25T02:42:35;9.20;99.90
25914;DHT22;13718;50.922;5.346;2023-04-25T02:45:02;9.20;99.90
25914;DHT22;13718;50.922;5.346;2023-04-25T02:47:27;9.20;99.90
25914;DHT22;13718;50.922;5.346;2023-04-25T02:49:53;9.10;99.90
25914;DHT22;13718;50.922;5.346;2023-04-25T02:52:19;9.10;99.90
25914;DHT22;13718;50.922;5.346;2023-04-25T02:54:44;9.10;99.90
25914;DHT22;13718;50.922;5.346;2023-04-25T02:57:10;9.10;99.90
25914;DHT22;13718;50.922;5.346;2023-04-25T02:59:35;9.10;99.90
25914;DHT22;13718;50.922;5.346;2023-04-25T03:02:01;9.10;99.90
25914;DHT22;13718;50.922;5.346;2023-04-25T03:04:27;9.00;99.90
25914;DHT22;13718;50.922;5.346;2023-04-25T03:06:53;9.00;99.90
25914;DHT22;13718;50.922;5.346;2023-04-25T03:09:19;9.00;99.90
25914;DHT22;13718;50.922;5.346;2023-04-25T03:11:45;9.00;99.90
25914;DHT22;13718;50.922;5.346;2023-04-25T03:14:11;9.00;99.90
25914;DHT22;13718;50.922;5.346;2023-04-25T03:16:37;9.10;99.90
25914;DHT22;13718;50.922;5.346;2023-04-25T03:19:03;9.10;99.90
25914;DHT22;13718;50.922;5.346;2023-04-25T03:21:29;9.10;99.90
25914;DHT22;13718;50.922;5.346;2023-04-25T03:23:57;9.10;99.90
25914;DHT22;13718;50.922;5.346;2023-04-25T03:26:23;9.10;99.90
25914;DHT22;13718;50.922;5.346;2023-04-25T03:28:48;9.10;99.90
25914;DHT22;13718;50.922;5.346;2023-04-25T03:31:14;9.10;99.90
25914;DHT22;13718;50.922;5.346;2023-04-25T03:33:40;9.10;99.90
25914;DHT22;13718;50.922;5.346;2023-04-25T03:36:06;9.00;99.90
25914;DHT22;13718;50.922;5.346;2023-04-25T03:38:31;9.00;99.90
25914;DHT22;13718;50.922;5.346;2023-04-25T03:40:57;9.00;99.90
25914;DHT22;13718;50.922;5.346;2023-04-25T03:43:23;9.00;99.90
25914;DHT22;13718;50.922;5.346;2023-04-25T03:45:48;9.00;99.90
25914;DHT22;13718;50.922;5.346;2023-04-25T03:48:14;8.90;99.90
25914;DHT22;13718;50.922;5.346;2023-04-25T03:50:39;9.00;99.90
25914;DHT22;13718;50.922;5.346;2023-04-25T03:53:05;8.90;99.90
25914;DHT22;13718;50.922;5.346;2023-04-25T03:55:30;8.90;99.90
25914;DHT22;13718;50.922;5.346;2023-04-25T03:57:58;9.00;99.90
25914;DHT22;13718;50.922;5.346;2023-04-25T04:00:24;8.90;99.90
25914;DHT22;13718;50.922;5.346;2023-04-25T04:02:50;8.90;99.90
25914;DHT22;13718;50.922;5.346;2023-04-25T04:05:16;8.90;99.90
25914;DHT22;13718;50.922;5.346;2023-04-25T04:07:41;8.90;99.90
25914;DHT22;13718;50.922;5.346;2023-04-25T04:10:09;8.90;99.90
25914;DHT22;13718;50.922;5.346;2023-04-25T04:12:35;8.80;99.90
25914;DHT22;13718;50.922;5.346;2023-04-25T04:15:02;8.80;99.90
25914;DHT22;13718;50.922;5.346;2023-04-25T04:17:29;8.70;99.90
25914;DHT22;13718;50.922;5.346;2023-04-25T04:19:54;8.70;99.90
25914;DHT22;13718;50.922;5.346;2023-04-25T04:22:20;8.80;99.90
25914;DHT22;13718;50.922;5.346;2023-04-25T04:24:46;8.70;99.90
25914;DHT22;13718;50.922;5.346;2023-04-25T04:27:12;8.60;99.90
25914;DHT22;13718;50.922;5.346;2023-04-25T04:29:38;8.70;99.90
25914;DHT22;13718;50.922;5.346;2023-04-25T04:32:04;8.50;99.90
25914;DHT22;13718;50.922;5.346;2023-04-25T04:34:30;8.50;99.90
25914;DHT22;13718;50.922;5.346;2023-04-25T04:36:56;8.50;99.90
25914;DHT22;13718;50.922;5.346;2023-04-25T04:39:22;8.50;99.90
25914;DHT22;13718;50.922;5.346;2023-04-25T04:41:48;8.40;99.90
25914;DHT22;13718;50.922;5.346;2023-04-25T04:44:14;8.30;99.90
25914;DHT22;13718;50.922;5.346;2023-04-25T04:46:40;8.30;99.90
25914;DHT22;13718;50.922;5.346;2023-04-25T04:49:09;8.30;99.90
25914;DHT22;13718;50.922;5.346;2023-04-25T04:51:34;8.40;99.90
25914;DHT22;13718;50.922;5.346;2023-04-25T04:54:00;8.40;99.90
25914;DHT22;13718;50.922;5.346;2023-04-25T04:56:28;8.50;99.90
25914;DHT22;13718;50.922;5.346;2023-04-25T04:58:54;8.50;99.90
25914;DHT22;13718;50.922;5.346;2023-04-25T05:01:20;8.50;99.90
25914;DHT22;13718;50.922;5.346;2023-04-25T05:03:46;8.50;99.90
25914;DHT22;13718;50.922;5.346;2023-04-25T05:06:11;8.60;99.90
25914;DHT22;13718;50.922;5.346;2023-04-25T05:08:37;8.60;99.90
25914;DHT22;13718;50.922;5.346;2023-04-25T05:11:03;8.70;99.90
25914;DHT22;13718;50.922;5.346;2023-04-25T05:13:28;8.70;99.90
25914;DHT22;13718;50.922;5.346;2023-04-25T05:15:54;8.70;99.90
25914;DHT22;13718;50.922;5.346;2023-04-25T05:18:19;8.70;99.90
25914;DHT22;13718;50.922;5.346;2023-04-25T05:20:45;8.80;99.90
25914;DHT22;13718;50.922;5.346;2023-04-25T05:23:11;8.80;99.90
25914;DHT22;13718;50.922;5.346;2023-04-25T05:25:36;8.80;99.90
25914;DHT22;13718;50.922;5.346;2023-04-25T05:28:02;8.90;99.90
25914;DHT22;13718;50.922;5.346;2023-04-25T05:30:28;8.90;99.90
25914;DHT22;13718;50.922;5.346;2023-04-25T05:32:53;9.00;99.90
25914;DHT22;13718;50.922;5.346;2023-04-25T05:35:19;9.00;99.90
25914;DHT22;13718;50.922;5.346;2023-04-25T05:37:44;9.00;99.90
25914;DHT22;13718;50.922;5.346;2023-04-25T05:40:10;9.10;99.90
25914;DHT22;13718;50.922;5.346;2023-04-25T05:42:36;9.20;99.90
25914;DHT22;13718;50.922;5.346;2023-04-25T05:45:02;9.20;99.90
25914;DHT22;13718;50.922;5.346;2023-04-25T05:47:27;9.30;99.90
25914;DHT22;13718;50.922;5.346;2023-04-25T05:49:53;9.30;99.90
25914;DHT22;13718;50.922;5.346;2023-04-25T05:52:18;9.40;99.90
25914;DHT22;13718;50.922;5.346;2023-04-25T05:54:44;9.40;99.90
25914;DHT22;13718;50.922;5.346;2023-04-25T05:57:20;9.40;99.90
25914;DHT22;13718;50.922;5.346;2023-04-25T05:59:46;9.40;99.90
25914;DHT22;13718;50.922;5.346;2023-04-25T06:02:11;9.40;99.90
25914;DHT22;13718;50.922;5.346;2023-04-25T06:04:37;9.40;99.90
25914;DHT22;13718;50.922;5.346;2023-04-25T06:07:03;9.40;99.90
25914;DHT22;13718;50.922;5.346;2023-04-25T06:09:28;9.50;99.90
25914;DHT22;13718;50.922;5.346;2023-04-25T06:11:54;9.50;99.90
25914;DHT22;13718;50.922;5.346;2023-04-25T06:14:19;9.50;99.90
25914;DHT22;13718;50.922;5.346;2023-04-25T06:16:45;9.60;99.90
25914;DHT22;13718;50.922;5.346;2023-04-25T06:19:11;9.60;99.90
25914;DHT22;13718;50.922;5.346;2023-04-25T06:21:36;9.70;99.90
25914;DHT22;13718;50.922;5.346;2023-04-25T06:24:02;9.80;99.90
25914;DHT22;13718;50.922;5.346;2023-04-25T06:26:27;9.80;99.90
25914;DHT22;13718;50.922;5.346;2023-04-25T06:28:53;10.00;99.90
25914;DHT22;13718;50.922;5.346;2023-04-25T06:31:19;10.10;99.90
25914;DHT22;13718;50.922;5.346;2023-04-25T06:33:44;10.20;99.90
25914;DHT22;13718;50.922;5.346;2023-04-25T06:36:10;10.20;99.90
25914;DHT22;13718;50.922;5.346;2023-04-25T06:38:35;10.30;99.90
25914;DHT22;13718;50.922;5.346;2023-04-25T06:41:01;10.50;99.90
25914;DHT22;13718;50.922;5.346;2023-04-25T06:43:27;10.70;99.90
25914;DHT22;13718;50.922;5.346;2023-04-25T06:45:53;10.80;99.90
25914;DHT22;13718;50.922;5.346;2023-04-25T06:48:19;11.00;99.90
25914;DHT22;13718;50.922;5.346;2023-04-25T06:50:44;11.00;99.90
25914;DHT22;13718;50.922;5.346;2023-04-25T06:53:10;11.10;99.90
25914;DHT22;13718;50.922;5.346;2023-04-25T06:55:36;11.20;99.90
25914;DHT22;13718;50.922;5.346;2023-04-25T06:58:02;11.20;99.90
25914;DHT22;13718;50.922;5.346;2023-04-25T07:00:28;11.30;99.90
25914;DHT22;13718;50.922;5.346;2023-04-25T07:02:54;11.30;99.90
25914;DHT22;13718;50.922;5.346;2023-04-25T07:05:19;11.30;99.90
25914;DHT22;13718;50.922;5.346;2023-04-25T07:07:46;11.40;99.90
25914;DHT22;13718;50.922;5.346;2023-04-25T07:10:11;11.40;99.90
25914;DHT22;13718;50.922;5.346;2023-04-25T07:12:37;11.40;99.90
25914;DHT22;13718;50.922;5.346;2023-04-25T07:15:03;11.40;99.90
25914;DHT22;13718;50.922;5.346;2023-04-25T07:17:31;11.40;99.90
25914;DHT22;13718;50.922;5.346;2023-04-25T07:19:58;11.40;99.90
25914;DHT22;13718;50.922;5.346;2023-04-25T07:22:23;11.50;99.90
25914;DHT22;13718;50.922;5.346;2023-04-25T07:24:49;11.50;99.90
25914;DHT22;13718;50.922;5.346;2023-04-25T07:27:15;11.70;99.90
25914;DHT22;13718;50.922;5.346;2023-04-25T07:29:41;12.00;99.90
25914;DHT22;13718;50.922;5.346;2023-04-25T07:32:07;12.40;99.90
25914;DHT22;13718;50.922;5.346;2023-04-25T07:34:33;12.80;99.90
25914;DHT22;13718;50.922;5.346;2023-04-25T07:37:02;13.10;99.90
25914;DHT22;13718;50.922;5.346;2023-04-25T07:39:28;13.40;99.90
25914;DHT22;13718;50.922;5.346;2023-04-25T07:41:53;13.50;99.90
25914;DHT22;13718;50.922;5.346;2023-04-25T07:44:19;13.60;99.90
25914;DHT22;13718;50.922;5.346;2023-04-25T07:46:45;13.90;99.90
25914;DHT22;13718;50.922;5.346;2023-04-25T07:49:10;14.30;99.90
25914;DHT22;13718;50.922;5.346;2023-04-25T07:51:36;14.30;99.90
25914;DHT22;13718;50.922;5.346;2023-04-25T07:54:02;14.10;99.90
25914;DHT22;13718;50.922;5.346;2023-04-25T07:56:27;13.90;99.90
25914;DHT22;13718;50.922;5.346;2023-04-25T07:58:53;13.40;99.90
25914;DHT22;13718;50.922;5.346;2023-04-25T08:01:19;13.20;99.90
25914;DHT22;13718;50.922;5.346;2023-04-25T08:03:46;13.20;99.90
25914;DHT22;13718;50.922;5.346;2023-04-25T08:06:12;13.10;99.90
25914;DHT22;13718;50.922;5.346;2023-04-25T08:08:37;13.20;99.90
25914;DHT22;13718;50.922;5.346;2023-04-25T08:11:03;13.10;99.90
25914;DHT22;13718;50.922;5.346;2023-04-25T08:50:32;12.90;98.70
25914;DHT22;13718;50.922;5.346;2023-04-25T08:52:59;12.90;98.80
25914;DHT22;13718;50.922;5.346;2023-04-25T08:55:27;12.80;98.90
25914;DHT22;13718;50.922;5.346;2023-04-25T08:57:54;12.60;98.40
25914;DHT22;13718;50.922;5.346;2023-04-25T09:00:22;12.60;98.70
25914;DHT22;13718;50.922;5.346;2023-04-25T09:02:48;12.30;99.10
25914;DHT22;13718;50.922;5.346;2023-04-25T09:05:14;12.20;99.30
25914;DHT22;13718;50.922;5.346;2023-04-25T09:07:40;12.20;99.40
25914;DHT22;13718;50.922;5.346;2023-04-25T09:10:06;12.40;99.40
25914;DHT22;13718;50.922;5.346;2023-04-25T09:12:31;12.80;99.60
25914;DHT22;13718;50.922;5.346;2023-04-25T09:15:06;13.20;99.80
25914;DHT22;13718;50.922;5.346;2023-04-25T09:17:32;13.50;99.40
25914;DHT22;13718;50.922;5.346;2023-04-25T09:20:08;13.90;99.00
25914;DHT22;13718;50.922;5.346;2023-04-25T09:22:36;14.10;97.80
25914;DHT22;13718;50.922;5.346;2023-04-25T09:25:03;14.10;97.50
25914;DHT22;13718;50.922;5.346;2023-04-25T09:27:29;14.10;97.30
25914;DHT22;13718;50.922;5.346;2023-04-25T09:29:59;14.00;97.20
25914;DHT22;13718;50.922;5.346;2023-04-25T09:32:28;13.80;97.10
25914;DHT22;13718;50.922;5.346;2023-04-25T09:34:55;13.80;97.60
25914;DHT22;13718;50.922;5.346;2023-04-25T09:37:28;13.90;97.70
25914;DHT22;13718;50.922;5.346;2023-04-25T09:39:56;14.00;97.70
25914;DHT22;13718;50.922;5.346;2023-04-25T09:42:23;14.20;97.40
25914;DHT22;13718;50.922;5.346;2023-04-25T09:44:52;14.10;96.20
25914;DHT22;13718;50.922;5.346;2023-04-25T09:47:18;14.20;96.40
25914;DHT22;13718;50.922;5.346;2023-04-25T09:49:46;14.40;96.00
25914;DHT22;13718;50.922;5.346;2023-04-25T09:52:23;14.50;95.70
25914;DHT22;13718;50.922;5.346;2023-04-25T09:54:50;14.60;95.10
25914;DHT22;13718;50.922;5.346;2023-04-25T09:57:16;14.40;94.60
25914;DHT22;13718;50.922;5.346;2023-04-25T09:59:50;14.20;93.90
25914;DHT22;13718;50.922;5.346;2023-04-25T10:02:20;14.30;93.90
25914;DHT22;13718;50.922;5.346;2023-04-25T10:04:49;14.50;93.80
25914;DHT22;13718;50.922;5.346;2023-04-25T10:07:15;14.70;93.50
25914;DHT22;13718;50.922;5.346;2023-04-25T10:09:42;14.80;93.10
25914;DHT22;13718;50.922;5.346;2023-04-25T10:12:08;14.80;92.50
25914;DHT22;13718;50.922;5.346;2023-04-25T10:14:34;14.80;91.70
25914;DHT22;13718;50.922;5.346;2023-04-25T10:17:01;14.60;91.30
25914;DHT22;13718;50.922;5.346;2023-04-25T10:19:27;14.50;91.50
25914;DHT22;13718;50.922;5.346;2023-04-25T10:22:02;14.70;92.00
25914;DHT22;13718;50.922;5.346;2023-04-25T10:24:29;14.90;91.90
25914;DHT22;13718;50.922;5.346;2023-04-25T10:26:56;15.10;91.80
25914;DHT22;13718;50.922;5.346;2023-04-25T10:29:26;15.10;91.50
25914;DHT22;13718;50.922;5.346;2023-04-25T10:31:52;15.30;90.70
25914;DHT22;13718;50.922;5.346;2023-04-25T10:34:18;15.40;90.70
25914;DHT22;13718;50.922;5.346;2023-04-25T10:36:50;14.90;92.10
25914;DHT22;13718;50.922;5.346;2023-04-25T10:39:24;14.30;93.90
25914;DHT22;13718;50.922;5.346;2023-04-25T10:41:56;14.20;94.60
25914;DHT22;13718;50.922;5.346;2023-04-25T10:44:22;13.80;95.10
25914;DHT22;13718;50.922;5.346;2023-04-25T10:46:51;14.00;94.90
25914;DHT22;13718;50.922;5.346;2023-04-25T10:49:37;13.80;95.00
25914;DHT22;13718;50.922;5.346;2023-04-25T10:52:26;13.90;94.40
25914;DHT22;13718;50.922;5.346;2023-04-25T10:54:54;14.10;93.90
25914;DHT22;13718;50.922;5.346;2023-04-25T10:57:41;14.00;91.50
25914;DHT22;13718;50.922;5.346;2023-04-25T11:00:08;13.90;91.30
25914;DHT22;13718;50.922;5.346;2023-04-25T11:02:53;14.10;90.90
25914;DHT22;13718;50.922;5.346;2023-04-25T11:05:32;14.50;91.10
25914;DHT22;13718;50.922;5.346;2023-04-25T11:07:59;15.00;91.00
25914;DHT22;13718;50.922;5.346;2023-04-25T11:10:26;15.20;90.00
25914;DHT22;13718;50.922;5.346;2023-04-25T11:12:52;15.30;87.10
25914;DHT22;13718;50.922;5.346;2023-04-25T11:15:18;15.40;83.50
25914;DHT22;13718;50.922;5.346;2023-04-25T11:17:43;15.60;84.40
25914;DHT22;13718;50.922;5.346;2023-04-25T11:20:11;15.70;81.90
25914;DHT22;13718;50.922;5.346;2023-04-25T11:22:39;15.70;81.00
25914;DHT22;13718;50.922;5.346;2023-04-25T11:25:10;15.40;81.80
25914;DHT22;13718;50.922;5.346;2023-04-25T11:27:52;15.40;80.50
25914;DHT22;13718;50.922;5.346;2023-04-25T11:30:19;15.50;82.20
25914;DHT22;13718;50.922;5.346;2023-04-25T11:32:45;15.70;81.50
25914;DHT22;13718;50.922;5.346;2023-04-25T11:35:11;15.60;80.30
25914;DHT22;13718;50.922;5.346;2023-04-25T11:37:38;15.60;81.00
25914;DHT22;13718;50.922;5.346;2023-04-25T11:40:05;15.10;82.40
25914;DHT22;13718;50.922;5.346;2023-04-25T11:42:32;14.70;83.90
25914;DHT22;13718;50.922;5.346;2023-04-25T11:44:58;14.40;84.80
25914;DHT22;13718;50.922;5.346;2023-04-25T11:47:31;14.60;85.30
25914;DHT22;13718;50.922;5.346;2023-04-25T11:49:59;14.80;84.10
25914;DHT22;13718;50.922;5.346;2023-04-25T11:52:42;14.40;83.20
25914;DHT22;13718;50.922;5.346;2023-04-25T11:55:16;14.00;87.10
25914;DHT22;13718;50.922;5.346;2023-04-25T11:57:44;13.80;87.40
25914;DHT22;13718;50.922;5.346;2023-04-25T12:00:19;13.30;87.90
25914;DHT22;13718;50.922;5.346;2023-04-25T12:02:55;13.40;87.80
25914;DHT22;13718;50.922;5.346;2023-04-25T12:05:28;13.30;86.50
25914;DHT22;13718;50.922;5.346;2023-04-25T12:07:55;13.40;87.20
25914;DHT22;13718;50.922;5.346;2023-04-25T12:10:20;13.50;86.20
25914;DHT22;13718;50.922;5.346;2023-04-25T12:12:47;13.90;84.90
25914;DHT22;13718;50.922;5.346;2023-04-25T12:15:33;14.00;85.00
25914;DHT22;13718;50.922;5.346;2023-04-25T12:17:58;14.40;86.10
25914;DHT22;13718;50.922;5.346;2023-04-25T12:20:27;14.60;85.30
25914;DHT22;13718;50.922;5.346;2023-04-25T12:22:52;14.40;85.70
25914;DHT22;13718;50.922;5.346;2023-04-25T12:25:40;14.30;85.60
25914;DHT22;13718;50.922;5.346;2023-04-25T12:28:23;14.10;85.20
25914;DHT22;13718;50.922;5.346;2023-04-25T12:31:07;13.90;90.70
25914;DHT22;13718;50.922;5.346;2023-04-25T12:33:35;13.50;92.00
25914;DHT22;13718;50.922;5.346;2023-04-25T12:36:03;13.20;93.00
25914;DHT22;13718;50.922;5.346;2023-04-25T12:38:38;13.00;93.00
25914;DHT22;13718;50.922;5.346;2023-04-25T12:41:04;12.80;93.40
25914;DHT22;13718;50.922;5.346;2023-04-25T12:43:30;12.80;93.40
25914;DHT22;13718;50.922;5.346;2023-04-25T12:45:56;12.70;93.30
25914;DHT22;13718;50.922;5.346;2023-04-25T12:48:22;12.70;93.10
25914;DHT22;13718;50.922;5.346;2023-04-25T12:50:49;12.80;93.40
25914;DHT22;13718;50.922;5.346;2023-04-25T12:53:20;13.00;93.70
25914;DHT22;13718;50.922;5.346;2023-04-25T12:55:46;13.10;93.10
25914;DHT22;13718;50.922;5.346;2023-04-25T12:58:13;13.30;92.70
25914;DHT22;13718;50.922;5.346;2023-04-25T13:00:38;13.50;92.70
25914;DHT22;13718;50.922;5.346;2023-04-25T13:03:04;13.50;91.80
25914;DHT22;13718;50.922;5.346;2023-04-25T13:05:30;13.70;91.10
25914;DHT22;13718;50.922;5.346;2023-04-25T13:07:56;13.80;90.90
25914;DHT22;13718;50.922;5.346;2023-04-25T13:10:22;13.90;90.60
25914;DHT22;13718;50.922;5.346;2023-04-25T13:12:48;14.20;90.30
25914;DHT22;13718;50.922;5.346;2023-04-25T13:15:13;14.40;88.70
25914;DHT22;13718;50.922;5.346;2023-04-25T13:17:41;14.10;89.20
25914;DHT22;13718;50.922;5.346;2023-04-25T13:20:08;13.90;89.90
25914;DHT22;13718;50.922;5.346;2023-04-25T13:22:38;13.90;90.20
25914;DHT22;13718;50.922;5.346;2023-04-25T13:25:05;13.80;89.40
25914;DHT22;13718;50.922;5.346;2023-04-25T13:27:32;13.80;89.30
25914;DHT22;13718;50.922;5.346;2023-04-25T13:30:00;13.60;90.20
25914;DHT22;13718;50.922;5.346;2023-04-25T13:32:26;13.60;90.70
25914;DHT22;13718;50.922;5.346;2023-04-25T13:34:53;13.60;91.10
25914;DHT22;13718;50.922;5.346;2023-04-25T13:37:18;13.50;92.00
25914;DHT22;13718;50.922;5.346;2023-04-25T13:39:44;13.60;92.20
25914;DHT22;13718;50.922;5.346;2023-04-25T13:42:10;13.60;92.60
25914;DHT22;13718;50.922;5.346;2023-04-25T13:44:36;13.70;92.60
25914;DHT22;13718;50.922;5.346;2023-04-25T13:47:02;13.90;92.20
25914;DHT22;13718;50.922;5.346;2023-04-25T13:49:28;14.00;91.40
25914;DHT22;13718;50.922;5.346;2023-04-25T13:51:53;14.10;91.00
25914;DHT22;13718;50.922;5.346;2023-04-25T13:54:19;14.30;90.70
25914;DHT22;13718;50.922;5.346;2023-04-25T13:56:45;14.40;89.50
25914;DHT22;13718;50.922;5.346;2023-04-25T13:59:11;14.40;89.50
25914;DHT22;13718;50.922;5.346;2023-04-25T14:01:36;14.60;89.20
25914;DHT22;13718;50.922;5.346;2023-04-25T14:04:02;14.70;89.30
25914;DHT22;13718;50.922;5.346;2023-04-25T14:06:31;14.80;87.80
25914;DHT22;13718;50.922;5.346;2023-04-25T14:08:57;14.80;87.60
25914;DHT22;13718;50.922;5.346;2023-04-25T14:11:23;14.60;87.00
25914;DHT22;13718;50.922;5.346;2023-04-25T14:13:48;14.50;87.80
25914;DHT22;13718;50.922;5.346;2023-04-25T14:16:15;14.00;86.90
25914;DHT22;13718;50.922;5.346;2023-04-25T14:18:41;13.20;89.40
25914;DHT22;13718;50.922;5.346;2023-04-25T14:21:07;12.70;90.40
25914;DHT22;13718;50.922;5.346;2023-04-25T14:23:33;12.30;91.00
25914;DHT22;13718;50.922;5.346;2023-04-25T14:25:58;12.30;91.30
25914;DHT22;13718;50.922;5.346;2023-04-25T14:28:24;12.30;91.80
25914;DHT22;13718;50.922;5.346;2023-04-25T14:30:50;12.50;91.90
25914;DHT22;13718;50.922;5.346;2023-04-25T14:33:15;12.80;91.60
25914;DHT22;13718;50.922;5.346;2023-04-25T14:35:41;13.10;90.60
25914;DHT22;13718;50.922;5.346;2023-04-25T14:38:07;13.40;89.70
25914;DHT22;13718;50.922;5.346;2023-04-25T14:40:33;13.30;88.70
25914;DHT22;13718;50.922;5.346;2023-04-25T14:42:58;13.10;89.30
25914;DHT22;13718;50.922;5.346;2023-04-25T14:45:24;13.00;89.80
25914;DHT22;13718;50.922;5.346;2023-04-25T14:47:50;13.10;88.70
25914;DHT22;13718;50.922;5.346;2023-04-25T14:50:17;13.10;88.50
25914;DHT22;13718;50.922;5.346;2023-04-25T14:52:42;13.20;90.00
25914;DHT22;13718;50.922;5.346;2023-04-25T14:55:09;13.00;90.00
25914;DHT22;13718;50.922;5.346;2023-04-25T14:57:35;13.20;90.10
25914;DHT22;13718;50.922;5.346;2023-04-25T15:00:01;13.30;90.10
25914;DHT22;13718;50.922;5.346;2023-04-25T15:02:28;13.40;89.60
25914;DHT22;13718;50.922;5.346;2023-04-25T15:04:54;13.40;89.20
25914;DHT22;13718;50.922;5.346;2023-04-25T15:07:21;13.60;90.30
25914;DHT22;13718;50.922;5.346;2023-04-25T15:09:47;13.80;89.70
25914;DHT22;13718;50.922;5.346;2023-04-25T15:12:13;13.90;89.20
25914;DHT22;13718;50.922;5.346;2023-04-25T15:14:39;14.10;87.70
25914;DHT22;13718;50.922;5.346;2023-04-25T15:17:05;14.00;85.50
25914;DHT22;13718;50.922;5.346;2023-04-25T15:19:31;13.80;86.30
25914;DHT22;13718;50.922;5.346;2023-04-25T15:21:57;13.30;87.40
25914;DHT22;13718;50.922;5.346;2023-04-25T15:24:25;13.20;88.40
25914;DHT22;13718;50.922;5.346;2023-04-25T15:26:51;13.30;87.90
25914;DHT22;13718;50.922;5.346;2023-04-25T15:29:17;13.20;87.90
25914;DHT22;13718;50.922;5.346;2023-04-25T15:31:44;13.10;88.40
25914;DHT22;13718;50.922;5.346;2023-04-25T15:34:10;12.90;89.80
25914;DHT22;13718;50.922;5.346;2023-04-25T15:36:36;12.90;90.40
25914;DHT22;13718;50.922;5.346;2023-04-25T15:39:01;12.80;91.00
25914;DHT22;13718;50.922;5.346;2023-04-25T15:41:28;13.00;91.70
25914;DHT22;13718;50.922;5.346;2023-04-25T15:43:53;13.00;90.80
25914;DHT22;13718;50.922;5.346;2023-04-25T15:46:19;13.00;90.90
25914;DHT22;13718;50.922;5.346;2023-04-25T15:48:46;13.00;90.70
25914;DHT22;13718;50.922;5.346;2023-04-25T15:51:12;13.10;90.90
25914;DHT22;13718;50.922;5.346;2023-04-25T15:53:37;13.00;90.90
25914;DHT22;13718;50.922;5.346;2023-04-25T15:56:03;12.80;90.70
25914;DHT22;13718;50.922;5.346;2023-04-25T15:58:29;12.60;91.30
25914;DHT22;13718;50.922;5.346;2023-04-25T16:00:54;12.40;92.00
25914;DHT22;13718;50.922;5.346;2023-04-25T16:03:21;12.30;91.30
25914;DHT22;13718;50.922;5.346;2023-04-25T16:05:48;12.30;90.70
25914;DHT22;13718;50.922;5.346;2023-04-25T16:08:14;12.30;90.80
25914;DHT22;13718;50.922;5.346;2023-04-25T16:10:39;12.40;91.10
25914;DHT22;13718;50.922;5.346;2023-04-25T16:13:05;12.30;90.70